Time;durP1;ratioP1;P1;durP2;ratioP2;P2;SDS_P1;SDS_P2;PMS_P1;PMS_P2;Temp;Humidity;BMP_temperature;BMP_pressure;BME280_temperature;BME280_humidity;BME280_pressure;Samples;Min_cycle;Max_cycle;Signal;HPM_P1;HPM_P2
2022/02/15 00:01:32;;;;;;;7.73;3.87;;;7.40;97.30;;;;;;5034596;28;20271;-80
2022/02/15 00:03:58;;;;;;;8.67;3.23;;;7.40;97.30;;;;;;5034594;28;20561;-80
2022/02/15 00:06:24;;;;;;;8.00;3.40;;;7.50;97.30;;;;;;5034511;28;20276;-79
2022/02/15 00:08:49;;;;;;;7.00;3.97;;;7.50;97.30;;;;;;5034122;28;21008;-79
2022/02/15 00:11:15;;;;;;;6.67;3.47;;;7.60;97.30;;;;;;5034096;28;20250;-79
2022/02/15 00:13:40;;;;;;;8.17;3.50;;;7.60;97.30;;;;;;5033281;28;20824;-79
2022/02/15 00:16:06;;;;;;;8.60;3.57;;;7.70;97.30;;;;;;5034288;28;20184;-79
2022/02/15 00:18:31;;;;;;;10.30;3.50;;;7.70;97.30;;;;;;5033398;28;20220;-80
2022/02/15 00:20:57;;;;;;;12.10;4.60;;;7.70;97.30;;;;;;5034069;28;20745;-80
2022/02/15 00:23:23;;;;;;;6.63;3.10;;;7.70;97.30;;;;;;5034972;28;20197;-80
2022/02/15 00:25:48;;;;;;;7.00;3.53;;;7.70;97.30;;;;;;5033468;28;20609;-80
2022/02/15 00:28:14;;;;;;;5.00;2.97;;;7.80;97.30;;;;;;5033992;28;20232;-80
2022/02/15 00:30:40;;;;;;;4.60;2.90;;;7.80;97.30;;;;;;5033891;28;20234;-79
2022/02/15 00:33:05;;;;;;;15.03;3.67;;;7.80;97.30;;;;;;5033635;28;20201;-80
2022/02/15 00:35:31;;;;;;;7.87;3.73;;;7.80;97.30;;;;;;5034892;28;20177;-79
2022/02/15 00:37:56;;;;;;;7.73;3.40;;;7.90;97.30;;;;;;5033725;28;20180;-79
2022/02/15 00:40:22;;;;;;;8.83;3.83;;;7.80;97.30;;;;;;5033544;28;20610;-80
2022/02/15 00:42:47;;;;;;;7.83;3.20;;;7.90;97.30;;;;;;5033720;28;20199;-80
2022/02/15 00:45:13;;;;;;;6.03;3.10;;;7.90;97.30;;;;;;5033254;28;20176;-79
2022/02/15 00:47:39;;;;;;;5.40;3.17;;;7.90;97.30;;;;;;5034707;28;20265;-79
2022/02/15 00:50:05;;;;;;;6.83;3.37;;;7.90;97.30;;;;;;5033003;28;20646;-80
2022/02/15 00:52:31;;;;;;;10.37;3.93;;;7.90;97.30;;;;;;5034954;28;20244;-80
2022/02/15 00:54:57;;;;;;;10.43;3.53;;;7.90;97.30;;;;;;5034058;28;20419;-80
2022/02/15 00:57:23;;;;;;;7.47;3.33;;;7.90;97.30;;;;;;5033066;28;20184;-79
2022/02/15 00:59:49;;;;;;;5.60;3.07;;;7.90;97.30;;;;;;5034220;28;20510;-80
2022/02/15 01:02:15;;;;;;;7.63;2.67;;;7.90;97.30;;;;;;5033020;28;20262;-79
2022/02/15 01:04:41;;;;;;;5.47;2.87;;;7.90;97.30;;;;;;5032726;28;20422;-79
2022/02/15 01:07:06;;;;;;;8.97;3.03;;;7.90;97.30;;;;;;5032894;28;20176;-80
2022/02/15 01:09:32;;;;;;;4.93;2.97;;;8.00;97.30;;;;;;5032543;28;20208;-80
2022/02/15 01:11:59;;;;;;;6.43;2.73;;;8.00;97.30;;;;;;5032222;28;20306;-80
2022/02/15 01:14:24;;;;;;;8.53;3.10;;;8.00;97.30;;;;;;5032606;28;20899;-79
2022/02/15 01:16:50;;;;;;;4.43;2.83;;;7.90;97.30;;;;;;5032165;28;20443;-80
2022/02/15 01:19:15;;;;;;;5.13;2.97;;;7.90;97.30;;;;;;5032346;28;20176;-79
2022/02/15 01:21:41;;;;;;;5.87;2.90;;;8.00;97.30;;;;;;5032328;28;20211;-80
2022/02/15 01:24:06;;;;;;;6.90;3.43;;;7.90;97.30;;;;;;5031525;28;20177;-80
2022/02/15 01:26:32;;;;;;;7.33;3.23;;;7.90;97.30;;;;;;5031853;28;20184;-79
2022/02/15 01:28:58;;;;;;;5.33;3.10;;;7.90;97.30;;;;;;5031338;28;20189;-79
2022/02/15 01:31:23;;;;;;;7.23;2.97;;;7.90;97.30;;;;;;5031128;28;20686;-80
2022/02/15 01:33:49;;;;;;;6.20;2.67;;;7.90;97.30;;;;;;5031218;28;20179;-79
2022/02/15 01:36:16;;;;;;;7.40;2.80;;;7.90;97.30;;;;;;5011720;28;20595;-79
2022/02/15 01:38:42;;;;;;;7.20;3.03;;;7.90;97.30;;;;;;5011510;28;20189;-81
2022/02/15 01:41:09;;;;;;;2.40;2.07;;;7.80;97.30;;;;;;5012395;28;20412;-81
2022/02/15 01:43:39;;;;;;;3.93;2.73;;;7.80;97.30;;;;;;5027200;28;20606;-81
2022/02/15 01:46:07;;;;;;;6.23;2.67;;;7.80;97.30;;;;;;5031835;28;20423;-82
2022/02/15 01:48:34;;;;;;;3.57;2.50;;;7.70;97.30;;;;;;5031922;28;20415;-81
2022/02/15 01:50:59;;;;;;;8.43;3.17;;;7.70;97.30;;;;;;5031773;28;20516;-81
2022/02/15 01:53:25;;;;;;;3.60;2.47;;;7.70;97.30;;;;;;5031638;28;20447;-82
2022/02/15 01:55:52;;;;;;;4.70;2.70;;;7.70;97.30;;;;;;5031633;28;20180;-81
2022/02/15 01:58:17;;;;;;;6.63;3.13;;;7.70;97.30;;;;;;5031789;28;20215;-80
2022/02/15 02:00:43;;;;;;;9.87;2.90;;;7.60;97.30;;;;;;5031614;28;20419;-80
2022/02/15 02:03:09;;;;;;;4.50;3.07;;;7.60;97.30;;;;;;5030825;28;20269;-80
2022/02/15 02:05:49;;;;;;;6.30;3.57;;;7.60;97.30;;;;;;5030643;28;20226;-79
2022/02/15 02:08:27;;;;;;;7.60;3.13;;;7.60;97.30;;;;;;5031032;28;20172;-79
2022/02/15 02:10:54;;;;;;;4.87;2.73;;;7.60;97.30;;;;;;5031529;28;20455;-79
2022/02/15 02:13:20;;;;;;;6.30;3.17;;;7.60;97.30;;;;;;5030381;28;20820;-80
2022/02/15 02:15:47;;;;;;;6.53;3.43;;;7.60;97.30;;;;;;5030634;28;20419;-80
2022/02/15 02:18:14;;;;;;;5.63;2.90;;;7.70;97.30;;;;;;5030887;28;20415;-79
2022/02/15 02:20:41;;;;;;;5.93;3.20;;;7.70;97.30;;;;;;5031281;28;20476;-80
2022/02/15 02:23:16;;;;;;;6.43;3.20;;;7.70;97.30;;;;;;5032562;28;20917;-80
2022/02/15 02:25:42;;;;;;;5.03;3.37;;;7.70;97.30;;;;;;5031006;28;20419;-80
2022/02/15 02:28:08;;;;;;;4.70;2.73;;;7.70;97.30;;;;;;5031421;28;20415;-79
2022/02/15 02:30:34;;;;;;;5.50;2.80;;;7.70;97.30;;;;;;5031187;28;21001;-79
2022/02/15 02:33:00;;;;;;;7.90;3.73;;;7.60;97.30;;;;;;5031503;28;20527;-79
2022/02/15 02:35:27;;;;;;;5.90;3.13;;;7.60;97.30;;;;;;5030654;28;20649;-79
2022/02/15 02:37:52;;;;;;;3.60;3.00;;;7.60;97.30;;;;;;5031732;28;20566;-79
2022/02/15 02:40:18;;;;;;;5.57;3.27;;;7.60;97.30;;;;;;5031863;28;20431;-79
2022/02/15 02:42:44;;;;;;;5.90;3.17;;;7.60;97.30;;;;;;5031764;28;20235;-79
2022/02/15 02:45:15;;;;;;;5.57;3.00;;;7.60;97.30;;;;;;5031224;28;20498;-79
2022/02/15 02:47:43;;;;;;;5.73;2.90;;;7.60;97.30;;;;;;5030723;28;20212;-79
2022/02/15 02:50:10;;;;;;;6.03;3.40;;;7.50;97.30;;;;;;5031106;28;20423;-80
2022/02/15 02:52:35;;;;;;;6.60;4.00;;;7.50;97.30;;;;;;5030851;28;20462;-80
2022/02/15 02:55:01;;;;;;;4.67;3.20;;;7.50;97.30;;;;;;5030631;28;20623;-78
2022/02/15 02:57:26;;;;;;;6.40;3.57;;;7.50;97.30;;;;;;5032735;28;20177;-80
2022/02/15 02:59:52;;;;;;;5.00;2.70;;;7.50;97.30;;;;;;5030666;28;20172;-80
2022/02/15 03:02:17;;;;;;;7.43;3.33;;;7.50;97.30;;;;;;5030750;28;20239;-80
2022/02/15 03:04:44;;;;;;;9.63;3.57;;;7.50;97.30;;;;;;5031197;28;20180;-80
2022/02/15 03:07:10;;;;;;;7.17;3.50;;;7.50;97.30;;;;;;5031145;28;20191;-80
2022/02/15 03:09:36;;;;;;;6.90;3.50;;;7.50;97.30;;;;;;5030653;28;20510;-79
2022/02/15 03:12:02;;;;;;;6.93;3.37;;;7.50;97.30;;;;;;5031817;28;21028;-80
2022/02/15 03:14:28;;;;;;;5.43;3.20;;;7.40;97.30;;;;;;5031827;28;20176;-80
2022/02/15 03:16:54;;;;;;;8.80;3.10;;;7.40;97.30;;;;;;5030792;28;20811;-79
2022/02/15 03:19:19;;;;;;;11.03;3.57;;;7.30;97.30;;;;;;5031856;28;20195;-80
2022/02/15 03:21:45;;;;;;;3.33;2.77;;;7.30;97.30;;;;;;5030914;28;20200;-80
2022/02/15 03:24:10;;;;;;;5.30;3.27;;;7.30;97.30;;;;;;5030511;28;20173;-80
2022/02/15 03:26:36;;;;;;;6.40;3.03;;;7.20;97.30;;;;;;5031272;28;20185;-80
2022/02/15 03:29:04;;;;;;;4.93;3.30;;;7.20;97.30;;;;;;5031156;28;20180;-81
2022/02/15 03:31:29;;;;;;;7.30;3.50;;;7.20;97.30;;;;;;5030609;28;20545;-80
2022/02/15 03:33:55;;;;;;;5.20;2.93;;;7.20;97.30;;;;;;5030485;28;20582;-79
2022/02/15 03:36:20;;;;;;;7.40;3.33;;;7.20;97.30;;;;;;5030050;28;20176;-79
2022/02/15 03:38:46;;;;;;;9.13;3.40;;;7.20;97.30;;;;;;5029551;28;20187;-79
2022/02/15 03:43:55;;;;;;;5.73;3.30;;;7.10;97.30;;;;;;5030462;28;20198;-79
2022/02/15 03:46:22;;;;;;;6.80;4.13;;;7.10;97.30;;;;;;5029196;28;20598;-79
2022/02/15 03:48:49;;;;;;;9.73;4.70;;;7.00;97.30;;;;;;5028843;28;20181;-79
2022/02/15 03:51:15;;;;;;;6.17;3.63;;;7.00;97.30;;;;;;5028980;28;20467;-79
2022/02/15 03:53:40;;;;;;;8.20;4.03;;;6.90;97.30;;;;;;5028719;28;21004;-79
2022/02/15 03:56:09;;;;;;;4.27;3.30;;;6.90;97.30;;;;;;5028901;28;20181;-79
2022/02/15 03:58:35;;;;;;;5.40;3.50;;;6.90;97.30;;;;;;5029606;28;20177;-80
2022/02/15 04:01:00;;;;;;;6.03;3.33;;;6.90;97.30;;;;;;5032638;28;20565;-79
2022/02/15 04:03:26;;;;;;;8.90;3.70;;;6.90;97.30;;;;;;5031828;28;20200;-79
2022/02/15 04:05:51;;;;;;;7.50;3.37;;;6.90;97.30;;;;;;5032575;28;20203;-79
2022/02/15 04:08:17;;;;;;;6.00;4.33;;;7.00;97.30;;;;;;5032497;28;20188;-80
2022/02/15 04:10:42;;;;;;;7.83;4.53;;;7.00;97.30;;;;;;5032035;28;20187;-79
2022/02/15 04:13:08;;;;;;;6.00;3.80;;;7.00;97.30;;;;;;5032242;28;20235;-78
2022/02/15 04:15:33;;;;;;;6.00;3.70;;;6.90;97.30;;;;;;5032432;28;20215;-79
2022/02/15 04:17:59;;;;;;;7.13;3.60;;;6.90;97.30;;;;;;5032651;28;20183;-79
2022/02/15 04:20:24;;;;;;;10.50;3.50;;;6.90;97.30;;;;;;5033113;28;20313;-79
2022/02/15 04:22:50;;;;;;;12.27;3.73;;;6.90;97.30;;;;;;5032475;28;20200;-79
2022/02/15 04:25:16;;;;;;;8.53;3.60;;;6.90;97.30;;;;;;5032372;28;20649;-79
2022/02/15 04:27:42;;;;;;;8.40;3.70;;;6.80;97.30;;;;;;5032281;28;20184;-79
2022/02/15 04:30:08;;;;;;;6.57;3.87;;;6.80;97.30;;;;;;5031991;28;20287;-78
2022/02/15 04:32:34;;;;;;;6.63;3.47;;;6.80;97.30;;;;;;5032000;28;20701;-80
2022/02/15 04:35:00;;;;;;;5.53;3.57;;;6.80;97.30;;;;;;5033186;28;20435;-79
2022/02/15 04:37:25;;;;;;;4.83;3.10;;;6.80;97.30;;;;;;5032356;28;20187;-79
2022/02/15 04:39:51;;;;;;;8.77;3.60;;;6.80;97.30;;;;;;5032143;28;20177;-79
2022/02/15 04:42:16;;;;;;;10.33;3.70;;;6.70;97.30;;;;;;5032067;28;20200;-79
2022/02/15 04:44:42;;;;;;;4.50;3.10;;;6.70;97.30;;;;;;5033713;28;20172;-79
2022/02/15 04:47:08;;;;;;;5.47;3.33;;;6.70;97.30;;;;;;5032233;28;20208;-79
2022/02/15 04:49:34;;;;;;;4.87;3.40;;;6.70;97.30;;;;;;5032675;28;20960;-78
2022/02/15 04:51:59;;;;;;;7.23;3.80;;;6.70;97.30;;;;;;5031652;28;20265;-79
2022/02/15 04:54:25;;;;;;;6.17;3.70;;;6.70;97.30;;;;;;5031371;28;20180;-79
2022/02/15 04:56:52;;;;;;;7.80;3.50;;;6.70;97.30;;;;;;5031586;28;20179;-79
2022/02/15 04:59:18;;;;;;;8.00;3.70;;;6.70;97.30;;;;;;5031651;28;20426;-79
2022/02/15 05:01:44;;;;;;;10.77;4.47;;;6.70;97.30;;;;;;5031657;28;20824;-79
2022/02/15 05:04:55;;;;;;;8.40;3.83;;;6.70;97.30;;;;;;5031637;28;20422;-79
2022/02/15 05:06:58;;;;;;;6.17;3.47;;;6.60;97.30;;;;;;5025300;28;20234;-79
2022/02/15 05:09:24;;;;;;;7.20;3.50;;;6.60;97.30;;;;;;5031311;28;20446;-79
2022/02/15 05:11:50;;;;;;;5.43;3.23;;;6.60;97.30;;;;;;5032294;28;20835;-79
2022/02/15 05:14:15;;;;;;;7.67;3.90;;;6.60;97.30;;;;;;5031179;28;20474;-79
2022/02/15 05:16:41;;;;;;;10.47;4.00;;;6.60;97.30;;;;;;5031532;28;20169;-79
2022/02/15 05:19:06;;;;;;;10.10;4.43;;;6.60;97.30;;;;;;5032137;28;20207;-79
2022/02/15 05:21:32;;;;;;;6.47;3.67;;;6.60;97.30;;;;;;5032212;28;20172;-79
2022/02/15 05:23:58;;;;;;;8.93;4.00;;;6.60;97.30;;;;;;5031813;28;20202;-79
2022/02/15 05:26:23;;;;;;;6.80;4.50;;;6.60;97.30;;;;;;5031003;28;20176;-79
2022/02/15 05:28:49;;;;;;;7.70;3.97;;;6.60;97.30;;;;;;5030568;28;20184;-79
2022/02/15 05:31:14;;;;;;;9.97;4.30;;;6.60;97.30;;;;;;5030656;28;20220;-79
2022/02/15 05:33:40;;;;;;;4.63;3.93;;;6.60;97.30;;;;;;5033358;28;20580;-80
2022/02/15 05:36:05;;;;;;;6.73;3.90;;;6.60;97.30;;;;;;5031933;28;20181;-79
2022/02/15 05:38:31;;;;;;;6.20;3.17;;;6.60;97.30;;;;;;5032057;28;20540;-80
2022/02/15 05:40:56;;;;;;;10.87;4.70;;;6.60;97.30;;;;;;5031544;28;20243;-79
2022/02/15 05:43:22;;;;;;;9.00;4.37;;;6.60;97.30;;;;;;5031945;28;20189;-79
2022/02/15 05:45:47;;;;;;;13.03;4.53;;;6.60;97.30;;;;;;5034120;28;20175;-80
2022/02/15 05:48:13;;;;;;;7.07;3.67;;;6.60;97.30;;;;;;5032071;28;20528;-80
2022/02/15 05:50:51;;;;;;;8.67;3.80;;;6.60;97.30;;;;;;5031663;28;20410;-79
2022/02/15 05:53:21;;;;;;;7.67;3.80;;;6.60;97.30;;;;;;5031865;28;20565;-79
2022/02/15 05:55:48;;;;;;;6.10;3.90;;;6.60;97.30;;;;;;5031670;28;20419;-79
2022/02/15 05:58:15;;;;;;;8.50;3.90;;;6.60;97.30;;;;;;5033904;28;20498;-79
2022/02/15 06:00:41;;;;;;;10.00;3.80;;;6.70;97.30;;;;;;5031892;28;20817;-79
2022/02/15 06:04:09;;;;;;;7.40;3.63;;;6.70;97.30;;;;;;5031955;28;20449;-79
2022/02/15 06:05:53;;;;;;;6.90;3.93;;;6.70;97.30;;;;;;5034083;28;20495;-79
2022/02/15 06:08:19;;;;;;;8.53;3.70;;;6.60;97.30;;;;;;5033119;28;20447;-79
2022/02/15 06:10:46;;;;;;;7.40;4.30;;;6.60;97.30;;;;;;5032025;28;20457;-79
2022/02/15 06:13:15;;;;;;;6.10;3.67;;;6.60;97.30;;;;;;5031286;28;20474;-79
2022/02/15 06:15:41;;;;;;;11.43;4.30;;;6.60;97.30;;;;;;5031590;28;20415;-79
2022/02/15 06:18:07;;;;;;;7.17;3.57;;;6.50;97.30;;;;;;5031232;28;20430;-80
2022/02/15 06:20:33;;;;;;;9.77;4.03;;;6.50;97.30;;;;;;5031766;28;20411;-79
2022/02/15 06:22:58;;;;;;;10.20;3.77;;;6.40;97.30;;;;;;5030252;28;21324;-79
2022/02/15 06:25:24;;;;;;;6.47;3.73;;;6.40;97.30;;;;;;5031149;28;20269;-79
2022/02/15 06:27:49;;;;;;;9.10;4.10;;;6.40;97.30;;;;;;5031832;28;20180;-80
2022/02/15 06:30:15;;;;;;;7.90;3.63;;;6.30;97.30;;;;;;5033068;28;20636;-79
2022/02/15 06:32:41;;;;;;;6.60;3.80;;;6.20;97.30;;;;;;5031037;28;20258;-80
2022/02/15 06:35:07;;;;;;;10.00;4.20;;;6.10;97.30;;;;;;5031752;28;20638;-80
2022/02/15 06:37:34;;;;;;;6.33;3.93;;;6.00;97.30;;;;;;5032208;28;20239;-80
2022/02/15 06:40:00;;;;;;;7.63;4.10;;;6.00;97.30;;;;;;5031429;28;20423;-80
2022/02/15 06:42:25;;;;;;;8.63;4.57;;;6.00;97.30;;;;;;5032469;28;20435;-79
2022/02/15 06:44:51;;;;;;;7.43;3.97;;;6.00;97.30;;;;;;5031094;28;20810;-80
2022/02/15 06:47:16;;;;;;;6.97;4.23;;;6.00;97.30;;;;;;5031360;28;20208;-79
2022/02/15 06:49:42;;;;;;;8.60;4.60;;;5.90;97.30;;;;;;5031578;28;20181;-80
2022/02/15 06:52:08;;;;;;;8.97;4.70;;;5.90;97.30;;;;;;5031108;28;20204;-79
2022/02/15 06:54:33;;;;;;;13.20;5.03;;;5.90;97.30;;;;;;5031395;28;20180;-79
2022/02/15 06:56:59;;;;;;;9.80;4.33;;;6.00;97.30;;;;;;5033973;28;20195;-79
2022/02/15 06:59:24;;;;;;;8.43;3.80;;;5.90;97.30;;;;;;5031687;28;20226;-79
2022/02/15 07:01:50;;;;;;;8.77;4.17;;;6.00;97.30;;;;;;5031507;28;20201;-80
2022/02/15 07:04:16;;;;;;;9.93;4.70;;;6.00;97.30;;;;;;5031625;28;20176;-79
2022/02/15 07:06:42;;;;;;;8.83;4.10;;;6.00;97.30;;;;;;5031286;28;20581;-80
2022/02/15 07:09:08;;;;;;;7.63;4.30;;;6.00;97.30;;;;;;5031465;28;20422;-79
2022/02/15 07:11:34;;;;;;;10.50;4.37;;;6.00;97.30;;;;;;5031483;28;20670;-79
2022/02/15 07:13:59;;;;;;;8.57;4.40;;;6.00;97.30;;;;;;5032015;28;20251;-79
2022/02/15 07:16:25;;;;;;;9.77;4.23;;;6.00;97.30;;;;;;5032196;28;20584;-79
2022/02/15 07:18:50;;;;;;;12.73;4.33;;;6.00;97.30;;;;;;5031300;28;20177;-79
2022/02/15 07:21:17;;;;;;;12.33;4.73;;;6.00;97.30;;;;;;5030790;28;20179;-79
2022/02/15 07:23:43;;;;;;;10.63;5.33;;;6.00;97.30;;;;;;5032321;28;20236;-79
2022/02/15 07:26:09;;;;;;;7.23;4.20;;;6.00;97.30;;;;;;5031312;28;20484;-79
2022/02/15 07:28:34;;;;;;;12.83;7.77;;;6.00;97.30;;;;;;5030564;28;20925;-79
2022/02/15 07:31:00;;;;;;;11.63;5.23;;;6.00;97.30;;;;;;5031471;28;20237;-79
2022/02/15 07:33:25;;;;;;;10.27;4.97;;;6.00;97.30;;;;;;5029878;28;20224;-79
2022/02/15 07:35:51;;;;;;;8.07;4.40;;;6.00;97.30;;;;;;5033947;28;20171;-80
2022/02/15 07:38:17;;;;;;;9.40;4.90;;;5.90;97.30;;;;;;5033757;28;20176;-79
2022/02/15 07:40:43;;;;;;;7.80;4.10;;;6.00;97.30;;;;;;5033937;28;20268;-79
2022/02/15 07:43:09;;;;;;;10.43;4.63;;;6.00;97.30;;;;;;5033878;28;20506;-80
2022/02/15 07:45:37;;;;;;;10.97;4.60;;;6.10;97.30;;;;;;5034174;28;20181;-79
2022/02/15 07:48:03;;;;;;;17.20;5.00;;;6.10;97.30;;;;;;5034437;28;20181;-79
2022/02/15 07:50:29;;;;;;;7.70;4.77;;;6.20;97.30;;;;;;5033984;28;20442;-80
2022/02/15 07:52:55;;;;;;;12.53;4.77;;;6.30;97.30;;;;;;5034021;28;20553;-79
2022/02/15 07:55:21;;;;;;;11.30;5.97;;;6.40;97.30;;;;;;5034019;28;20173;-79
2022/02/15 07:57:47;;;;;;;11.00;5.97;;;6.50;97.30;;;;;;5033447;28;20177;-82
2022/02/15 08:00:18;;;;;;;12.13;6.13;;;6.60;97.30;;;;;;5035993;28;20481;-82
2022/02/15 08:02:45;;;;;;;12.40;5.20;;;6.60;97.30;;;;;;5034853;28;20200;-82
2022/02/15 08:05:10;;;;;;;8.03;4.33;;;6.70;97.30;;;;;;5035330;28;20419;-82
2022/02/15 08:07:37;;;;;;;12.40;4.70;;;6.70;97.30;;;;;;5034879;28;20434;-82
2022/02/15 08:10:04;;;;;;;11.17;4.73;;;6.80;97.30;;;;;;5035608;28;20295;-82
2022/02/15 08:12:30;;;;;;;11.13;4.30;;;6.80;97.30;;;;;;5035379;28;20482;-82
2022/02/15 08:14:55;;;;;;;10.90;5.13;;;6.90;97.30;;;;;;5035424;28;20454;-82
2022/02/15 08:17:22;;;;;;;16.73;4.20;;;6.90;97.30;;;;;;5035338;28;20172;-81
2022/02/15 08:19:48;;;;;;;7.60;4.03;;;7.10;97.30;;;;;;5036028;28;20255;-82
2022/02/15 08:22:14;;;;;;;9.33;4.70;;;7.10;97.30;;;;;;5036553;28;20443;-82
2022/02/15 08:24:40;;;;;;;7.63;4.00;;;7.20;97.30;;;;;;5035971;28;20519;-82
2022/02/15 08:27:05;;;;;;;8.33;4.23;;;7.20;97.30;;;;;;5037320;28;20459;-82
2022/02/15 08:29:31;;;;;;;6.43;3.40;;;7.30;97.30;;;;;;5037790;28;20558;-82
2022/02/15 08:31:58;;;;;;;10.27;4.57;;;7.40;97.30;;;;;;5036698;28;20724;-82
2022/02/15 08:34:24;;;;;;;6.30;3.90;;;7.50;97.30;;;;;;5036097;28;20276;-82
2022/02/15 08:36:50;;;;;;;7.13;3.80;;;7.60;97.30;;;;;;5036727;28;20419;-82
2022/02/15 08:39:15;;;;;;;6.73;4.27;;;7.70;97.30;;;;;;5036321;28;20185;-82
2022/02/15 08:41:42;;;;;;;6.80;3.83;;;7.80;97.30;;;;;;5036267;28;20204;-82
2022/02/15 08:44:07;;;;;;;12.80;3.90;;;7.90;97.30;;;;;;5037455;28;20207;-82
2022/02/15 08:46:33;;;;;;;12.23;3.80;;;7.90;97.30;;;;;;5035654;28;20427;-82
2022/02/15 08:48:59;;;;;;;12.93;3.47;;;8.00;97.30;;;;;;5034812;28;20435;-82
2022/02/15 08:51:24;;;;;;;6.93;3.63;;;8.10;97.30;;;;;;5034523;28;20224;-82
2022/02/15 08:53:51;;;;;;;9.77;3.47;;;8.20;97.30;;;;;;5034844;28;20277;-82
2022/02/15 08:56:19;;;;;;;10.37;4.10;;;8.30;97.30;;;;;;5034125;28;20215;-82
2022/02/15 08:58:44;;;;;;;12.80;4.53;;;8.40;97.30;;;;;;5033749;28;20440;-82
2022/02/15 09:01:11;;;;;;;9.60;3.60;;;8.40;97.30;;;;;;5035753;28;20411;-83
2022/02/15 09:03:36;;;;;;;10.07;3.73;;;8.50;97.30;;;;;;5033296;28;20238;-82
2022/02/15 09:06:02;;;;;;;10.40;3.57;;;8.60;97.30;;;;;;5034899;28;20419;-82
2022/02/15 09:08:29;;;;;;;8.57;4.00;;;8.60;97.30;;;;;;5035912;28;20176;-82
2022/02/15 09:10:54;;;;;;;5.70;3.20;;;8.70;97.30;;;;;;5033834;28;20429;-83
2022/02/15 09:13:20;;;;;;;20.10;4.83;;;8.70;97.30;;;;;;5033862;28;20471;-82
2022/02/15 09:15:45;;;;;;;11.37;3.80;;;8.80;97.30;;;;;;5035565;28;20183;-82
2022/02/15 09:18:11;;;;;;;13.20;3.73;;;8.80;97.30;;;;;;5033968;28;20822;-82
2022/02/15 09:20:38;;;;;;;5.30;3.37;;;8.90;97.30;;;;;;5034131;28;20207;-82
2022/02/15 09:23:04;;;;;;;9.43;3.90;;;9.00;97.30;;;;;;5034480;28;20196;-81
2022/02/15 09:25:30;;;;;;;7.00;3.73;;;9.10;97.30;;;;;;5034156;28;20470;-81
2022/02/15 09:27:55;;;;;;;7.67;3.53;;;9.30;97.30;;;;;;5034377;28;20455;-83
2022/02/15 09:30:21;;;;;;;12.27;3.97;;;9.50;97.30;;;;;;5035866;28;20180;-82
2022/02/15 09:32:47;;;;;;;11.03;4.80;;;9.40;97.30;;;;;;5034434;28;20270;-82
2022/02/15 09:35:12;;;;;;;8.63;3.93;;;9.30;97.30;;;;;;5035962;28;20192;-82
2022/02/15 09:37:38;;;;;;;9.60;3.70;;;9.40;97.30;;;;;;5036091;28;20179;-82
2022/02/15 09:40:05;;;;;;;8.17;3.63;;;9.50;97.30;;;;;;5035060;28;20500;-82
2022/02/15 09:42:31;;;;;;;7.70;3.93;;;9.40;97.30;;;;;;5037846;28;20232;-81
2022/02/15 09:44:57;;;;;;;9.43;3.80;;;9.40;97.30;;;;;;5037535;28;20427;-82
2022/02/15 09:47:25;;;;;;;11.63;4.00;;;9.30;97.30;;;;;;5038566;28;20177;-82
2022/02/15 09:49:52;;;;;;;8.57;3.27;;;9.30;97.30;;;;;;5035458;28;20180;-82
2022/02/15 09:52:24;;;;;;;9.23;3.50;;;9.50;97.30;;;;;;5035571;28;20558;-83
2022/02/15 09:54:52;;;;;;;5.30;3.40;;;9.60;97.30;;;;;;5034880;28;20415;-83
2022/02/15 09:57:19;;;;;;;9.90;3.37;;;9.70;97.30;;;;;;5034443;28;20501;-83
2022/02/15 09:59:47;;;;;;;7.50;3.33;;;9.60;97.30;;;;;;5037631;28;20461;-82
2022/02/15 10:02:24;;;;;;;15.50;4.20;;;9.60;97.30;;;;;;5033478;28;20458;-82
2022/02/15 10:04:55;;;;;;;5.17;4.10;;;9.50;97.30;;;;;;5034405;28;20414;-82
2022/02/15 10:07:22;;;;;;;6.60;3.47;;;9.60;97.30;;;;;;5034520;28;20446;-83
2022/02/15 10:09:52;;;;;;;9.10;4.13;;;9.70;97.30;;;;;;5034665;28;20422;-82
2022/02/15 10:12:19;;;;;;;10.83;3.90;;;9.70;97.30;;;;;;5034687;28;20526;-82
2022/02/15 10:14:48;;;;;;;7.00;3.90;;;9.60;97.30;;;;;;5035494;28;20450;-82
2022/02/15 10:17:16;;;;;;;8.07;4.97;;;9.60;97.30;;;;;;5039878;28;20407;-82
2022/02/15 10:19:44;;;;;;;11.13;4.70;;;9.60;97.30;;;;;;5035530;28;20426;-82
2022/02/15 10:22:10;;;;;;;6.13;3.63;;;9.60;97.30;;;;;;5036809;28;20800;-82
2022/02/15 10:24:38;;;;;;;10.07;4.13;;;9.90;97.30;;;;;;5034763;28;20423;-82
2022/02/15 10:27:06;;;;;;;4.70;3.73;;;10.00;97.30;;;;;;5036256;28;20411;-82
2022/02/15 10:29:34;;;;;;;6.77;3.87;;;9.90;97.30;;;;;;5034148;28;20498;-83
2022/02/15 10:32:03;;;;;;;9.27;4.60;;;9.80;97.30;;;;;;5034539;28;20478;-82
2022/02/15 10:34:28;;;;;;;7.43;4.40;;;9.80;97.30;;;;;;5034989;28;20529;-82
2022/02/15 10:37:05;;;;;;;7.60;3.80;;;9.90;97.30;;;;;;5034980;28;20459;-83
2022/02/15 10:39:57;;;;;;;8.00;4.00;;;10.00;97.30;;;;;;5018318;28;20455;-83
2022/02/15 10:42:26;;;;;;;6.50;4.50;;;10.10;97.30;;;;;;5027938;28;20443;-83
2022/02/15 10:45:02;;;;;;;6.93;4.27;;;10.20;97.30;;;;;;5034635;28;20786;-82
2022/02/15 10:47:33;;;;;;;8.53;3.80;;;10.30;97.30;;;;;;5033672;28;20438;-82
2022/02/15 10:50:04;;;;;;;6.63;4.20;;;10.30;97.30;;;;;;5033839;28;20423;-82
2022/02/15 10:52:30;;;;;;;8.80;4.10;;;10.40;97.30;;;;;;5034073;28;20474;-82
2022/02/15 10:54:56;;;;;;;7.77;3.70;;;10.50;97.30;;;;;;5034116;28;20798;-82
2022/02/15 10:57:23;;;;;;;8.50;4.00;;;10.50;97.30;;;;;;5035385;28;20595;-82
2022/02/15 10:59:51;;;;;;;7.20;4.53;;;10.70;97.30;;;;;;5034246;28;20476;-81
2022/02/15 11:02:20;;;;;;;5.70;3.87;;;10.70;96.90;;;;;;5035575;28;20443;-82
2022/02/15 11:04:48;;;;;;;11.70;3.73;;;10.60;96.90;;;;;;5035480;28;20415;-82
2022/02/15 11:07:15;;;;;;;7.63;3.93;;;10.40;96.80;;;;;;5036956;28;20494;-82
2022/02/15 11:09:59;;;;;;;7.53;4.23;;;10.30;97.30;;;;;;5039489;28;20421;-82
2022/02/15 11:12:34;;;;;;;8.70;3.37;;;10.20;97.20;;;;;;5040033;28;20487;-83
2022/02/15 11:15:02;;;;;;;10.33;4.13;;;10.10;97.30;;;;;;5040160;28;20422;-83
2022/02/15 11:17:28;;;;;;;3.20;2.60;;;10.00;97.30;;;;;;5039776;28;20461;-82
2022/02/15 11:20:07;;;;;;;6.73;3.23;;;10.00;97.30;;;;;;5039259;28;20419;-82
2022/02/15 11:22:52;;;;;;;9.00;3.53;;;10.00;97.30;;;;;;5039462;28;20431;-83
2022/02/15 11:25:38;;;;;;;6.90;3.70;;;10.00;97.30;;;;;;5039138;28;20436;-83
2022/02/15 11:28:06;;;;;;;5.30;3.47;;;10.00;97.30;;;;;;5036367;28;20423;-81
2022/02/15 11:30:50;;;;;;;8.40;3.83;;;9.80;97.30;;;;;;5035536;28;20412;-82
2022/02/15 11:33:40;;;;;;;11.57;4.80;;;9.70;97.30;;;;;;5035229;28;20473;-82
2022/02/15 11:36:10;;;;;;;7.47;3.63;;;9.70;97.30;;;;;;5025115;28;20454;-82
2022/02/15 11:38:36;;;;;;;9.70;4.00;;;9.70;97.30;;;;;;5035420;28;20415;-82
2022/02/15 11:41:05;;;;;;;11.40;4.43;;;9.50;97.30;;;;;;5035348;28;20447;-81
2022/02/15 11:43:31;;;;;;;5.30;3.60;;;9.50;97.30;;;;;;5035171;28;20440;-82
2022/02/15 11:45:57;;;;;;;9.63;3.77;;;9.40;97.30;;;;;;5034830;28;20415;-81
2022/02/15 11:48:37;;;;;;;7.57;3.80;;;9.40;97.30;;;;;;5034790;28;20410;-81
2022/02/15 11:51:03;;;;;;;9.80;4.00;;;9.40;97.30;;;;;;5034893;28;20263;-82
2022/02/15 11:53:29;;;;;;;14.43;5.53;;;9.30;97.30;;;;;;5035080;28;20481;-81
2022/02/15 11:55:55;;;;;;;16.07;5.80;;;9.40;97.30;;;;;;5034873;28;20449;-82
2022/02/15 11:58:21;;;;;;;19.93;7.03;;;9.40;97.30;;;;;;5035196;28;20425;-81
2022/02/15 12:00:47;;;;;;;11.10;5.73;;;9.40;97.30;;;;;;5035084;28;20506;-82
2022/02/15 12:03:17;;;;;;;10.47;4.60;;;9.30;97.30;;;;;;5036966;28;20197;-82
2022/02/15 12:05:45;;;;;;;8.00;4.70;;;9.30;97.30;;;;;;5035273;28;20176;-81
2022/02/15 12:08:12;;;;;;;8.90;4.70;;;9.20;97.30;;;;;;5034967;28;20446;-81
2022/02/15 12:10:42;;;;;;;12.87;5.60;;;9.20;97.30;;;;;;5027636;28;20429;-82
2022/02/15 12:13:20;;;;;;;12.70;4.97;;;9.10;97.30;;;;;;5036438;28;20466;-82
2022/02/15 12:15:50;;;;;;;7.03;4.17;;;9.00;97.30;;;;;;5034218;28;20411;-82
2022/02/15 12:18:34;;;;;;;15.93;5.23;;;8.80;97.30;;;;;;5035080;28;20764;-81
2022/02/15 12:21:01;;;;;;;12.83;4.93;;;8.70;97.30;;;;;;5032745;28;20465;-81
2022/02/15 12:23:27;;;;;;;9.30;4.13;;;8.80;97.30;;;;;;5034766;28;20446;-81
2022/02/15 12:25:53;;;;;;;9.40;4.80;;;9.10;97.30;;;;;;5034483;28;20412;-82
2022/02/15 12:28:26;;;;;;;10.40;5.30;;;9.20;97.30;;;;;;5034279;28;20419;-82
2022/02/15 12:30:53;;;;;;;19.00;6.53;;;9.30;97.30;;;;;;5034654;28;20169;-81
2022/02/15 12:33:19;;;;;;;9.63;5.53;;;9.30;97.30;;;;;;5033965;28;20462;-82
2022/02/15 12:35:52;;;;;;;21.10;7.10;;;9.30;97.30;;;;;;5035502;28;21030;-81
2022/02/15 12:38:18;;;;;;;12.70;5.60;;;9.30;97.30;;;;;;5034426;28;20484;-82
2022/02/15 12:40:43;;;;;;;11.17;6.90;;;9.30;97.30;;;;;;5034331;28;20753;-82
2022/02/15 12:43:09;;;;;;;10.80;5.50;;;9.20;97.30;;;;;;5036289;28;20203;-81
2022/02/15 12:45:42;;;;;;;14.03;6.33;;;9.10;97.30;;;;;;5035376;28;20259;-82
2022/02/15 12:48:09;;;;;;;9.20;4.97;;;9.00;97.30;;;;;;5035525;28;20180;-81
2022/02/15 12:50:35;;;;;;;14.53;5.23;;;8.90;97.30;;;;;;5034324;28;20419;-82
2022/02/15 12:53:01;;;;;;;9.87;4.67;;;8.80;97.30;;;;;;5036061;28;20488;-81
2022/02/15 12:55:26;;;;;;;9.73;4.00;;;8.60;97.30;;;;;;5034999;28;20648;-82